Time;durP1;ratioP1;P1;durP2;ratioP2;P2;SDS_P1;SDS_P2;PMS_P1;PMS_P2;Temp;Humidity;BMP_temperature;BMP_pressure;BME280_temperature;BME280_humidity;BME280_pressure;Samples;Min_cycle;Max_cycle;Signal;HPM_P1;HPM_P2
2022/12/21 00:01:30;;;;;;;;;7.67;4.67;;;;;14.02;100.00;100873.75;5057097;28;45447;-72
2022/12/21 00:03:58;;;;;;;;;5.00;4.67;;;;;14.04;100.00;100882.59;5057772;28;45292;-72
2022/12/21 00:06:25;;;;;;;;;5.67;4.00;;;;;14.00;100.00;100871.09;5044223;28;45415;-74
2022/12/21 00:08:53;;;;;;;;;5.00;5.00;;;;;14.02;100.00;100879.94;5047198;28;45336;-74
2022/12/21 00:11:21;;;;;;;;;8.00;5.00;;;;;14.02;100.00;100887.91;5056386;28;45851;-73
2022/12/21 00:13:46;;;;;;;;;7.00;7.00;;;;;13.98;100.00;100872.88;5048195;28;45450;-73
2022/12/21 00:16:14;;;;;;;;;5.67;5.67;;;;;13.98;100.00;100880.84;5038498;28;45273;-73
2022/12/21 00:18:41;;;;;;;;;8.00;5.33;;;;;14.01;100.00;100885.25;5056419;28;45353;-73
2022/12/21 00:21:10;;;;;;;;;5.00;5.00;;;;;14.03;100.00;100892.34;5056949;28;46523;-73
2022/12/21 00:23:36;;;;;;;;;10.00;5.67;;;;;14.01;100.00;100875.53;5053037;28;45391;-73
2022/12/21 00:26:03;;;;;;;;;8.33;4.00;;;;;14.00;100.00;100876.41;5057422;28;45435;-72
2022/12/21 00:28:29;;;;;;;;;5.67;5.00;;;;;14.03;100.00;100880.84;5057103;28;45474;-71
2022/12/21 00:30:54;;;;;;;;;5.67;5.00;;;;;14.02;100.00;100881.72;5056431;28;63857;-73
2022/12/21 00:33:19;;;;;;;;;6.00;6.00;;;;;14.03;100.00;100876.41;5057153;28;45411;-72
2022/12/21 00:35:51;;;;;;;;;6.67;5.00;;;;;13.97;100.00;100865.81;5037565;28;45412;-74
2022/12/21 00:38:17;;;;;;;;;6.33;5.00;;;;;14.01;100.00;100864.00;5056552;28;45440;-73
2022/12/21 00:40:43;;;;;;;;;8.00;6.67;;;;;13.95;100.00;100864.91;5051661;28;47502;-73
2022/12/21 00:43:09;;;;;;;;;6.67;6.67;;;;;13.97;100.00;100871.09;5055370;28;45545;-73
2022/12/21 00:45:34;;;;;;;;;12.00;6.00;;;;;13.96;100.00;100873.78;5057187;28;45286;-73
2022/12/21 00:47:59;;;;;;;;;9.33;7.00;;;;;13.94;100.00;100875.53;5038334;28;52963;-73
2022/12/21 00:50:24;;;;;;;;;5.00;4.33;;;;;13.98;100.00;100874.66;5055159;28;61428;-74
2022/12/21 00:52:50;;;;;;;;;7.00;6.00;;;;;13.96;100.00;100865.81;5055540;28;49422;-74
2022/12/21 00:55:15;;;;;;;;;6.00;6.00;;;;;13.98;100.00;100874.66;5056577;28;55839;-72
2022/12/21 00:57:41;;;;;;;;;6.00;5.00;;;;;13.98;100.00;100877.31;5055679;28;45406;-72
2022/12/21 01:00:07;;;;;;;;;6.00;5.67;;;;;13.99;100.00;100885.25;5055435;28;62528;-72
2022/12/21 01:02:32;;;;;;;;;8.67;3.33;;;;;13.98;100.00;100880.84;5056212;28;45488;-72
2022/12/21 01:05:00;;;;;;;;;7.00;5.00;;;;;13.97;100.00;100884.38;5055661;28;54628;-72
2022/12/21 01:07:25;;;;;;;;;5.00;4.00;;;;;13.97;100.00;100886.16;5056701;28;45242;-74
2022/12/21 01:09:51;;;;;;;;;5.00;3.67;;;;;13.96;100.00;100884.41;5056223;28;45532;-73
2022/12/21 01:12:16;;;;;;;;;5.00;5.00;;;;;13.94;100.00;100891.47;5051460;28;51083;-73
2022/12/21 01:14:41;;;;;;;;;5.00;5.00;;;;;13.93;100.00;100887.03;5055932;28;56797;-72
2022/12/21 01:17:07;;;;;;;;;5.00;5.00;;;;;13.91;100.00;100875.56;5055855;28;56807;-72
2022/12/21 01:19:32;;;;;;;;;5.00;5.00;;;;;13.88;100.00;100879.09;5055395;28;62163;-73
2022/12/21 01:21:57;;;;;;;;;4.67;4.00;;;;;13.93;100.00;100895.88;5056413;28;45510;-73
2022/12/21 01:24:23;;;;;;;;;4.00;4.00;;;;;13.97;100.00;100889.69;5056074;28;45368;-72
2022/12/21 01:26:48;;;;;;;;;5.33;5.00;;;;;13.97;100.00;100883.50;5055909;28;51181;-73
2022/12/21 01:29:14;;;;;;;;;5.00;5.00;;;;;13.93;100.00;100879.97;5055680;28;62343;-73
2022/12/21 01:31:39;;;;;;;;;8.00;4.00;;;;;13.92;100.00;100893.25;5055463;28;46120;-74
2022/12/21 01:34:05;;;;;;;;;4.00;4.00;;;;;13.93;100.00;100902.97;5056253;28;45324;-72
2022/12/21 01:36:30;;;;;;;;;4.33;4.00;;;;;13.91;100.00;100902.97;5056292;28;45261;-74
2022/12/21 01:38:56;;;;;;;;;6.33;5.00;;;;;13.93;100.00;100908.28;5036280;28;46341;-73
2022/12/21 01:41:25;;;;;;;;;3.67;3.67;;;;;13.93;100.00;100903.84;5052093;28;45452;-73
2022/12/21 01:43:51;;;;;;;;;7.33;6.00;;;;;13.97;100.00;100910.94;5050621;28;45456;-73
2022/12/21 01:46:25;;;;;;;;;6.67;4.00;;;;;13.97;100.00;100915.34;5053672;28;45372;-73
2022/12/21 01:49:01;;;;;;;;;4.33;3.00;;;;;13.95;100.00;100920.66;5038065;28;46313;-73
2022/12/21 01:51:27;;;;;;;;;4.33;4.33;;;;;13.91;100.00;100929.53;5052563;28;45352;-73
2022/12/21 01:54:00;;;;;;;;;4.00;4.00;;;;;13.85;100.00;100929.53;5056130;28;45383;-73
2022/12/21 01:56:31;;;;;;;;;4.67;4.67;;;;;13.84;100.00;100943.66;5041170;28;45351;-73
2022/12/21 01:58:59;;;;;;;;;2.00;2.00;;;;;13.83;100.00;100956.06;5059715;28;45483;-73
2022/12/21 02:01:24;;;;;;;;;1.00;1.00;;;;;13.78;100.00;100952.53;5038253;28;45503;-73
2022/12/21 02:03:52;;;;;;;;;1.00;1.00;;;;;13.73;100.00;100956.94;5052945;28;58958;-72
2022/12/21 02:06:23;;;;;;;;;1.00;1.00;;;;;13.69;100.00;100955.19;5059416;28;45395;-73
2022/12/21 02:08:48;;;;;;;;;3.00;1.00;;;;;13.60;100.00;100956.06;5040186;28;47302;-73
2022/12/21 02:11:15;;;;;;;;;1.00;1.00;;;;;13.63;100.00;100966.69;5056690;28;56197;-74
2022/12/21 02:13:41;;;;;;;;;0.00;0.00;;;;;13.60;100.00;100968.44;5058850;28;45179;-73
2022/12/21 02:16:27;;;;;;;;;0.67;0.67;;;;;13.54;100.00;100965.78;5059834;28;45415;-72
2022/12/21 02:19:01;;;;;;;;;2.33;1.00;;;;;13.50;100.00;100969.31;5037874;28;46196;-72
2022/12/21 02:21:28;;;;;;;;;1.00;1.00;;;;;13.47;100.00;100961.34;5041871;28;45547;-75
2022/12/21 02:24:25;;;;;;;;;1.00;0.67;;;;;13.41;100.00;100948.09;5037041;28;45450;-73
2022/12/21 02:27:35;;;;;;;;;1.33;1.00;;;;;13.29;100.00;100954.25;5059409;28;45419;-73
2022/12/21 02:30:19;;;;;;;;;3.00;0.00;;;;;13.15;100.00;100945.34;5045698;28;47297;-73
2022/12/21 02:33:23;;;;;;;;;0.33;0.33;;;;;13.09;100.00;100946.22;5036413;28;45174;-73
2022/12/21 02:36:13;;;;;;;;;1.00;0.00;;;;;13.02;100.00;100957.69;5051228;28;45450;-72
2022/12/21 02:38:45;;;;;;;;;1.00;1.00;;;;;12.96;100.00;100953.25;5058820;28;45320;-73
2022/12/21 02:41:41;;;;;;;;;1.33;1.00;;;;;12.90;100.00;100947.06;5058090;28;45709;-74
2022/12/21 02:44:28;;;;;;;;;1.00;1.00;;;;;12.82;100.00;100954.97;5058195;28;46903;-73
2022/12/21 02:47:18;;;;;;;;;1.00;1.00;;;;;12.74;100.00;100940.81;5058070;28;45308;-73
2022/12/21 02:49:59;;;;;;;;;1.67;0.00;;;;;12.66;100.00;100943.41;5040027;28;45484;-73
2022/12/21 02:52:45;;;;;;;;;1.00;1.00;;;;;12.68;100.00;100954.06;5029900;28;45729;-73
2022/12/21 02:55:12;;;;;;;;;1.67;1.00;;;;;12.60;100.00;100956.66;5052547;28;45450;-72
2022/12/21 02:57:40;;;;;;;;;0.00;0.00;;;;;12.57;100.00;100956.66;5040505;28;45483;-72
2022/12/21 03:00:14;;;;;;;;;0.00;0.00;;;;;12.58;100.00;100964.59;5059057;28;45351;-72
2022/12/21 03:05:50;;;;;;;;;0.00;0.00;;;;;12.51;100.00;100968.06;5057788;28;45463;-74
2022/12/21 03:08:40;;;;;;;;;1.00;1.00;;;;;12.48;100.00;100960.13;5059249;28;45411;-72
2022/12/21 03:11:06;;;;;;;;;1.00;1.00;;;;;12.42;100.00;100959.22;5058211;28;45644;-72
2022/12/21 03:13:54;;;;;;;;;1.00;1.00;;;;;12.43;100.00;100977.75;5056427;28;45804;-72
2022/12/21 03:16:44;;;;;;;;;0.00;0.00;;;;;12.41;100.00;100963.63;5058685;28;45349;-72
2022/12/21 03:19:40;;;;;;;;;1.00;1.00;;;;;12.41;100.00;100970.66;5058228;28;45518;-73
2022/12/21 03:22:18;;;;;;;;;0.33;0.33;;;;;12.38;100.00;100968.00;5039773;28;45177;-73
2022/12/21 03:25:12;;;;;;;;;0.00;0.00;;;;;12.35;100.00;100976.81;5058276;28;45621;-74
2022/12/21 03:27:42;;;;;;;;;1.00;1.00;;;;;12.33;100.00;100967.97;5034385;28;45309;-73
2022/12/21 03:30:14;;;;;;;;;1.67;0.67;;;;;12.31;100.00;100964.44;5058133;28;45471;-73
2022/12/21 03:32:56;;;;;;;;;0.00;0.00;;;;;12.24;100.00;100966.16;5040436;28;45406;-75
2022/12/21 03:35:28;;;;;;;;;2.00;1.00;;;;;12.26;100.00;100979.41;5045655;28;46076;-72
2022/12/21 03:37:56;;;;;;;;;1.00;1.00;;;;;12.25;100.00;100980.28;5037474;28;45508;-73
2022/12/21 03:40:24;;;;;;;;;1.00;1.00;;;;;12.24;100.00;100984.69;5037083;28;45541;-73
2022/12/21 03:43:02;;;;;;;;;2.67;2.00;;;;;12.19;100.00;100969.66;5040098;28;45454;-72
2022/12/21 03:45:32;;;;;;;;;0.67;0.67;;;;;12.20;100.00;100980.28;5034105;28;46322;-73
2022/12/21 03:48:18;;;;;;;;;0.67;0.67;;;;;12.23;100.00;100974.97;5034384;28;45422;-72
2022/12/21 03:50:48;;;;;;;;;4.00;1.00;;;;;12.19;100.00;100970.53;5052031;28;45302;-72
2022/12/21 03:53:39;;;;;;;;;0.33;0.33;;;;;12.23;100.00;100982.03;5035937;28;45519;-73
2022/12/21 03:56:06;;;;;;;;;1.00;1.00;;;;;12.21;100.00;100975.84;5035281;28;45308;-73
2022/12/21 03:58:32;;;;;;;;;0.33;0.33;;;;;12.19;100.00;100981.13;5057515;28;45377;-73
2022/12/21 04:01:10;;;;;;;;;3.67;1.00;;;;;12.15;100.00;100979.34;5057771;28;45451;-73
2022/12/21 04:03:39;;;;;;;;;3.00;1.33;;;;;12.12;100.00;100979.31;5055144;28;45488;-73
2022/12/21 04:06:15;;;;;;;;;2.00;2.00;;;;;12.13;100.00;100986.38;5056774;28;46749;-72
2022/12/21 04:08:41;;;;;;;;;1.67;1.67;;;;;12.10;100.00;100980.19;5038400;28;46029;-72
2022/12/21 04:12:35;;;;;;;;;2.00;1.00;;;;;12.12;100.00;100984.59;5036184;28;45408;-73
2022/12/21 04:13:52;;;;;;;;;0.67;0.67;;;;;12.09;100.00;100987.25;5056772;28;45595;-72
2022/12/21 04:16:17;;;;;;;;;1.00;1.00;;;;;12.08;100.00;100988.09;5057011;28;63148;-73
2022/12/21 04:21:26;;;;;;;;;1.00;1.00;;;;;12.10;100.00;101001.38;5052811;28;45365;-73
2022/12/21 04:29:20;;;;;;;;;0.67;0.67;;;;;12.18;100.00;101015.53;5057077;28;45403;-75
2022/12/21 04:31:45;;;;;;;;;3.00;1.00;;;;;12.16;100.00;101007.59;5056288;28;58240;-73
2022/12/21 04:34:10;;;;;;;;;3.00;1.00;;;;;12.19;100.00;101004.06;5056714;28;52556;-73
2022/12/21 04:39:20;;;;;;;;;4.33;2.00;;;;;12.18;100.00;101008.47;5053168;28;45298;-74
2022/12/21 04:41:45;;;;;;;;;1.00;1.00;;;;;12.18;100.00;101019.06;5047186;28;52036;-73
2022/12/21 04:44:10;;;;;;;;;3.00;2.00;;;;;12.12;100.00;101007.53;5056719;28;50495;-72
2022/12/21 04:46:35;;;;;;;;;2.00;1.00;;;;;12.08;100.00;101003.97;5056281;28;62758;-74
2022/12/21 04:49:01;;;;;;;;;1.00;1.00;;;;;12.07;100.00;101010.16;5056249;28;54844;-72
2022/12/21 04:51:26;;;;;;;;;1.00;1.00;;;;;12.02;100.00;101009.22;5055017;28;45456;-75
2022/12/21 04:53:52;;;;;;;;;1.00;1.00;;;;;11.99;100.00;101019.81;5056597;28;45328;-74
2022/12/21 04:56:18;;;;;;;;;2.00;2.00;;;;;11.89;100.00;101005.59;5050489;28;46446;-73
2022/12/21 04:58:44;;;;;;;;;0.00;0.00;;;;;11.88;100.00;101018.81;5055650;28;45363;-73
2022/12/21 05:01:19;;;;;;;;;2.00;1.00;;;;;11.79;100.00;101007.25;5056457;28;45397;-72
2022/12/21 05:03:44;;;;;;;;;1.00;1.00;;;;;11.78;100.00;101008.13;5054762;28;45498;-72
2022/12/21 05:06:10;;;;;;;;;1.00;1.00;;;;;11.73;100.00;101022.19;5056293;28;60950;-73
2022/12/21 05:08:37;;;;;;;;;1.00;1.00;;;;;11.70;100.00;101025.69;5056259;28;45470;-72
2022/12/21 05:11:17;;;;;;;;;2.33;2.00;;;;;11.62;100.00;101022.09;5056535;28;45447;-73
2022/12/21 05:13:42;;;;;;;;;1.00;1.00;;;;;11.57;100.00;101020.28;5056072;28;45511;-73
2022/12/21 05:16:14;;;;;;;;;1.00;1.00;;;;;11.46;100.00;101005.19;5055964;28;46338;-74
2022/12/21 05:18:39;;;;;;;;;1.00;1.00;;;;;11.43;100.00;101025.41;5056554;28;45543;-72
2022/12/21 05:21:05;;;;;;;;;1.00;1.00;;;;;11.40;100.00;101022.72;5055325;28;45482;-73
2022/12/21 05:23:30;;;;;;;;;3.00;2.00;;;;;11.33;100.00;101027.06;5056400;28;45507;-74
2022/12/21 05:25:56;;;;;;;;;2.33;2.33;;;;;11.32;100.00;101030.56;5056246;28;46387;-74
2022/12/21 05:28:21;;;;;;;;;1.00;1.00;;;;;11.27;100.00;101029.63;5056714;28;45227;-72
2022/12/21 05:30:46;;;;;;;;;1.00;1.00;;;;;11.20;100.00;101026.03;5055124;28;57624;-74
2022/12/21 05:33:12;;;;;;;;;2.00;1.00;;;;;11.23;100.00;101020.78;5057057;28;45491;-74
2022/12/21 05:35:40;;;;;;;;;1.00;1.00;;;;;11.23;100.00;101027.81;5199933;22;45628;-72
2022/12/21 05:38:06;;;;;;;;;1.00;1.00;;;;;11.21;100.00;101014.59;5056444;28;45358;-74
2022/12/21 05:40:33;;;;;;;;;2.00;1.00;;;;;11.21;100.00;101017.25;5055313;28;45387;-72
2022/12/21 05:42:58;;;;;;;;;0.67;0.67;;;;;11.23;100.00;101023.41;5034717;28;45625;-72
2022/12/21 05:45:24;;;;;;;;;1.00;1.00;;;;;11.28;100.00;101023.47;5056576;28;47163;-72
2022/12/21 05:47:49;;;;;;;;;1.00;1.00;;;;;11.25;100.00;101015.53;5055726;28;45463;-72
2022/12/21 05:50:14;;;;;;;;;0.33;0.33;;;;;11.28;100.00;101026.13;5056069;28;57674;-75
2022/12/21 05:52:40;;;;;;;;;0.00;0.00;;;;;11.26;100.00;101020.81;5054555;28;54181;-75
2022/12/21 05:55:05;;;;;;;;;0.33;0.33;;;;;11.28;100.00;101018.19;5050719;28;51690;-73
2022/12/21 05:57:31;;;;;;;;;0.00;0.00;;;;;11.29;100.00;101022.59;5055547;28;45372;-72
2022/12/21 05:59:56;;;;;;;;;0.00;0.00;;;;;11.31;100.00;101023.53;5055718;28;52968;-73
2022/12/21 06:02:21;;;;;;;;;1.33;0.00;;;;;11.32;100.00;101021.75;5055886;28;55170;-74
2022/12/21 06:04:47;;;;;;;;;1.00;1.00;;;;;11.37;100.00;101034.16;5054549;28;58494;-75
2022/12/21 06:07:12;;;;;;;;;0.67;0.67;;;;;11.36;100.00;101026.22;5053473;28;59611;-72
2022/12/21 06:09:37;;;;;;;;;0.33;0.00;;;;;11.35;100.00;101025.34;5055640;28;45415;-73
2022/12/21 06:12:03;;;;;;;;;0.00;0.00;;;;;11.37;100.00;101039.44;5050710;28;55328;-73
2022/12/21 06:14:28;;;;;;;;;1.00;1.00;;;;;11.38;100.00;101035.03;5054213;28;47378;-72
2022/12/21 06:16:54;;;;;;;;;2.00;0.67;;;;;11.37;100.00;101031.50;5055803;28;45309;-72
2022/12/21 06:19:19;;;;;;;;;0.00;0.00;;;;;11.37;100.00;101030.63;5054685;28;53258;-73
2022/12/21 06:21:44;;;;;;;;;0.00;0.00;;;;;11.36;100.00;101026.22;5051171;28;48418;-74
2022/12/21 06:24:10;;;;;;;;;0.00;0.00;;;;;11.34;100.00;101033.22;5050464;28;47385;-72
2022/12/21 06:26:35;;;;;;;;;0.00;0.00;;;;;11.31;100.00;101038.50;5055502;28;45380;-72
2022/12/21 06:29:00;;;;;;;;;1.00;1.00;;;;;11.30;100.00;101034.97;5049852;28;56578;-72
2022/12/21 06:31:26;;;;;;;;;2.00;0.00;;;;;11.34;100.00;101047.31;5040372;28;45698;-73
2022/12/21 06:33:53;;;;;;;;;2.00;1.00;;;;;11.34;100.00;101047.31;5036991;28;45412;-73
2022/12/21 06:36:19;;;;;;;;;0.00;0.00;;;;;11.28;100.00;101049.91;5037845;28;45563;-73
2022/12/21 06:38:44;;;;;;;;;0.00;0.00;;;;;11.28;100.00;101039.34;5016617;28;45520;-72
2022/12/21 06:41:15;;;;;;;;;1.00;1.00;;;;;11.27;100.00;101045.50;5045143;28;45503;-72
2022/12/21 06:43:42;;;;;;;;;2.00;0.00;;;;;11.27;100.00;101058.72;5057721;28;46365;-72
2022/12/21 06:46:09;;;;;;;;;1.00;1.00;;;;;11.29;100.00;101049.03;5058018;28;45320;-73
2022/12/21 06:48:36;;;;;;;;;2.33;1.00;;;;;11.26;100.00;101041.97;5058676;28;45367;-72
2022/12/21 06:51:04;;;;;;;;;2.00;1.00;;;;;11.25;100.00;101044.59;5040452;28;45427;-73
2022/12/21 06:53:33;;;;;;;;;0.00;0.00;;;;;11.27;100.00;101053.44;5057805;28;46644;-73
2022/12/21 06:56:14;;;;;;;;;1.00;1.00;;;;;11.24;100.00;101042.84;5036532;28;45456;-72
2022/12/21 06:58:39;;;;;;;;;0.00;0.00;;;;;11.19;100.00;101048.06;5034088;28;45609;-72
2022/12/21 07:01:07;;;;;;;;;1.00;1.00;;;;;11.19;100.00;101048.06;5042757;28;53785;-71
2022/12/21 07:03:33;;;;;;;;;2.67;1.00;;;;;11.15;100.00;101038.31;5040704;28;45892;-72
2022/12/21 07:05:58;;;;;;;;;1.00;1.00;;;;;11.11;100.00;101041.78;5041216;28;45286;-72
2022/12/21 07:08:24;;;;;;;;;0.00;0.00;;;;;11.12;100.00;101046.19;5047445;28;45565;-72
2022/12/21 07:10:49;;;;;;;;;1.00;1.00;;;;;11.15;100.00;101054.16;5043244;28;55363;-72
2022/12/21 07:13:15;;;;;;;;;5.00;2.00;;;;;11.15;100.00;101053.28;5047984;28;52017;-72
2022/12/21 07:15:40;;;;;;;;;1.67;1.67;;;;;11.16;100.00;101055.94;5048866;28;45678;-72
2022/12/21 07:18:05;;;;;;;;;2.00;1.00;;;;;11.17;100.00;101063.00;5057762;28;45719;-72
2022/12/21 07:20:31;;;;;;;;;2.33;1.00;;;;;11.15;100.00;101066.50;5058456;28;45437;-73
2022/12/21 07:22:56;;;;;;;;;2.00;0.00;;;;;11.17;100.00;101059.47;5057598;28;46335;-73
2022/12/21 07:25:21;;;;;;;;;1.00;1.00;;;;;11.13;100.00;101053.28;5056128;28;61470;-72
2022/12/21 07:27:47;;;;;;;;;1.00;1.00;;;;;11.18;100.00;101063.88;5058002;28;45517;-72
2022/12/21 07:30:13;;;;;;;;;1.00;1.00;;;;;11.17;100.00;101052.44;5057442;28;50486;-72
2022/12/21 07:32:39;;;;;;;;;1.00;1.00;;;;;11.21;100.00;101064.81;5057477;28;46577;-73
2022/12/21 07:35:04;;;;;;;;;2.00;2.00;;;;;11.22;100.00;101060.41;5057999;28;45609;-72
2022/12/21 07:37:30;;;;;;;;;2.33;2.33;;;;;11.23;100.00;101075.41;5056484;28;45552;-72
2022/12/21 07:39:55;;;;;;;;;1.00;1.00;;;;;11.25;100.00;101081.59;5049166;28;45451;-73
2022/12/21 07:42:21;;;;;;;;;1.00;1.00;;;;;11.24;100.00;101083.38;5049092;28;46529;-74
2022/12/21 07:44:46;;;;;;;;;3.33;1.00;;;;;11.22;100.00;101078.91;5048275;28;45486;-73
2022/12/21 07:47:11;;;;;;;;;6.00;1.33;;;;;11.26;100.00;101096.59;5047940;28;45351;-74
2022/12/21 07:49:37;;;;;;;;;2.00;1.00;;;;;11.23;100.00;101093.91;5049999;28;53271;-71
2022/12/21 07:52:02;;;;;;;;;1.67;1.67;;;;;11.24;100.00;101088.66;5054212;28;46816;-72
2022/12/21 07:54:28;;;;;;;;;4.00;1.00;;;;;11.24;100.00;101082.50;5053798;28;45456;-72
2022/12/21 07:56:53;;;;;;;;;3.33;1.00;;;;;11.27;100.00;101095.72;5056323;28;54537;-73
2022/12/21 07:59:19;;;;;;;;;1.00;1.00;;;;;11.31;100.00;101102.81;5051551;28;45488;-73
2022/12/21 08:01:44;;;;;;;;;2.00;1.00;;;;;11.30;100.00;101086.97;5036729;28;65786;-74
2022/12/21 08:04:09;;;;;;;;;4.00;1.33;;;;;11.39;100.00;101106.44;5050252;28;48867;-75
2022/12/21 08:06:35;;;;;;;;;1.67;1.67;;;;;11.37;100.00;101096.72;5055303;28;48767;-74
2022/12/21 08:09:03;;;;;;;;;2.00;0.33;;;;;11.40;100.00;101096.75;5052501;28;45653;-73
2022/12/21 08:11:29;;;;;;;;;1.00;1.00;;;;;11.40;100.00;101091.44;5052864;28;47335;-73
2022/12/21 08:13:56;;;;;;;;;2.67;1.00;;;;;11.47;100.00;101099.50;5053443;28;45170;-75
2022/12/21 08:16:22;;;;;;;;;2.00;2.00;;;;;11.47;100.00;101107.44;5054010;28;56750;-73
2022/12/21 08:18:48;;;;;;;;;1.67;1.00;;;;;11.48;100.00;101095.97;5048866;28;45470;-76
2022/12/21 08:21:14;;;;;;;;;2.00;2.00;;;;;11.54;100.00;101106.63;5056724;28;46635;-73
2022/12/21 08:23:40;;;;;;;;;2.67;1.00;;;;;11.54;100.00;101093.41;5056131;28;46932;-73
2022/12/21 08:26:08;;;;;;;;;1.00;1.00;;;;;11.62;100.00;101109.38;5055569;28;45646;-73
2022/12/21 08:28:33;;;;;;;;;3.33;1.00;;;;;11.65;100.00;101104.09;5056742;28;45446;-73
2022/12/21 08:31:13;;;;;;;;;2.33;1.00;;;;;11.67;100.00;101094.44;5049151;28;47115;-73
2022/12/21 08:33:41;;;;;;;;;1.00;1.00;;;;;11.77;100.00;101092.75;5048408;28;45426;-71
2022/12/21 08:36:17;;;;;;;;;1.00;1.00;;;;;11.82;100.00;101079.59;5041620;28;45368;-71
2022/12/21 08:38:44;;;;;;;;;1.67;1.33;;;;;11.87;100.00;101084.06;5043976;28;45594;-74
2022/12/21 08:41:09;;;;;;;;;0.00;0.00;;;;;11.94;100.00;101090.31;5044510;28;45683;-72
2022/12/21 08:43:36;;;;;;;;;1.33;1.33;;;;;11.97;100.00;101100.94;5043727;28;56630;-73
2022/12/21 08:46:03;;;;;;;;;3.00;1.00;;;;;12.00;100.00;101103.63;5043805;28;45399;-71
2022/12/21 08:48:29;;;;;;;;;1.67;1.67;;;;;12.02;100.00;101113.31;5054290;28;46061;-73
2022/12/21 08:50:54;;;;;;;;;1.33;1.33;;;;;12.02;100.00;101108.03;5055179;28;46559;-73
2022/12/21 08:53:20;;;;;;;;;4.00;2.00;;;;;12.00;100.00;101104.50;5053621;28;55418;-73
2022/12/21 08:55:47;;;;;;;;;2.00;0.00;;;;;12.02;100.00;101118.63;5053299;28;45843;-73
2022/12/21 08:58:12;;;;;;;;;2.67;1.00;;;;;12.05;100.00;101099.25;5042650;28;45392;-72
2022/12/21 09:00:38;;;;;;;;;1.00;1.00;;;;;12.02;100.00;101086.84;5042086;28;65010;-72
2022/12/21 09:03:06;;;;;;;;;1.00;1.00;;;;;12.08;100.00;101093.97;5048511;28;45324;-73
2022/12/21 09:05:32;;;;;;;;;0.00;0.00;;;;;12.07;100.00;101085.16;5039812;28;45447;-72
2022/12/21 09:07:57;;;;;;;;;2.00;1.00;;;;;12.11;100.00;101083.41;5039535;28;45548;-72
2022/12/21 09:10:22;;;;;;;;;2.00;1.00;;;;;12.14;100.00;101086.06;5042152;28;47111;-73
2022/12/21 09:12:48;;;;;;;;;2.67;1.33;;;;;12.16;100.00;101087.00;5041469;28;61304;-73
2022/12/21 09:15:13;;;;;;;;;0.33;0.33;;;;;12.19;100.00;101091.41;5034486;28;53603;-73
2022/12/21 09:17:38;;;;;;;;;2.00;1.67;;;;;12.06;100.00;101080.72;5040788;28;56697;-73
2022/12/21 09:20:05;;;;;;;;;1.00;1.00;;;;;12.18;100.00;101098.47;5038379;28;56055;-74
2022/12/21 09:22:30;;;;;;;;;4.00;1.00;;;;;12.17;100.00;101093.19;5044401;28;45569;-73
2022/12/21 09:24:56;;;;;;;;;3.33;2.00;;;;;12.17;100.00;101098.47;5042361;28;57489;-74
2022/12/21 09:27:21;;;;;;;;;1.33;1.33;;;;;12.13;100.00;101086.97;5041466;28;45536;-73
2022/12/21 09:29:47;;;;;;;;;2.00;2.00;;;;;12.19;100.00;101109.94;5037511;28;61431;-71
2022/12/21 09:32:12;;;;;;;;;3.00;1.00;;;;;12.25;100.00;101120.59;5042397;28;45679;-71
2022/12/21 09:34:37;;;;;;;;;1.00;1.00;;;;;12.25;100.00;101102.06;5043750;28;45498;-72
2022/12/21 09:37:03;;;;;;;;;1.00;1.00;;;;;12.29;100.00;101112.69;5043293;28;54422;-72
2022/12/21 09:39:28;;;;;;;;;4.67;2.00;;;;;12.32;100.00;101106.53;5035817;28;64717;-71
2022/12/21 09:42:23;;;;;;;;;1.00;1.00;;;;;12.39;100.00;101121.59;5042811;28;54815;-70
2022/12/21 09:45:02;;;;;;;;;4.00;2.00;;;;;12.38;100.00;101130.41;4987654;28;45409;-71
2022/12/21 09:47:42;;;;;;;;;3.00;2.00;;;;;12.46;100.00;101126.06;5040068;28;45431;-70
2022/12/21 09:50:15;;;;;;;;;1.00;1.00;;;;;12.47;100.00;101127.84;5034262;28;46614;-72
2022/12/21 09:52:48;;;;;;;;;2.67;2.67;;;;;12.46;100.00;101128.72;5033719;28;45377;-72
2022/12/21 09:55:16;;;;;;;;;3.00;3.00;;;;;12.52;100.00;101133.19;5025128;28;45450;-72
2022/12/21 09:57:42;;;;;;;;;2.00;2.00;;;;;12.57;100.00;101136.78;5039964;28;47169;-72
2022/12/21 10:00:16;;;;;;;;;4.33;2.67;;;;;12.54;100.00;101120.84;5046536;28;45590;-71
2022/12/21 10:02:52;;;;;;;;;2.33;2.00;;;;;12.59;100.00;101133.25;5040130;28;45450;-73
2022/12/21 10:05:38;;;;;;;;;4.00;2.33;;;;;12.70;100.00;101135.97;5039388;28;45494;-72
2022/12/21 10:08:14;;;;;;;;;4.00;3.00;;;;;12.78;100.00;101149.25;5039791;28;45550;-72
2022/12/21 10:10:45;;;;;;;;;3.33;2.00;;;;;12.79;100.00;101145.75;5044327;28;46523;-71
2022/12/21 10:13:47;;;;;;;;;6.33;2.00;;;;;12.87;100.00;101151.09;5041095;28;45443;-72
2022/12/21 10:16:41;;;;;;;;;2.67;2.67;;;;;12.85;100.00;101136.06;5040764;28;45376;-72
2022/12/21 10:19:08;;;;;;;;;1.67;1.00;;;;;12.91;100.00;101126.41;5050478;28;45950;-72
2022/12/21 10:21:33;;;;;;;;;3.00;3.00;;;;;12.90;100.00;101122.88;5035411;28;45628;-72
2022/12/21 10:23:59;;;;;;;;;3.00;3.00;;;;;12.88;100.00;101094.56;5042476;28;45405;-71
2022/12/21 10:26:27;;;;;;;;;3.00;2.00;;;;;12.92;100.00;101099.00;5038320;28;45507;-72
2022/12/21 10:28:58;;;;;;;;;0.00;0.00;;;;;12.92;100.00;101106.97;5046994;28;45624;-71
2022/12/21 10:31:27;;;;;;;;;3.00;2.00;;;;;12.94;100.00;101121.97;5046596;28;45690;-72
2022/12/21 10:33:55;;;;;;;;;2.33;2.33;;;;;12.95;100.00;101104.34;5045117;28;45570;-72
2022/12/21 10:36:22;;;;;;;;;2.67;2.00;;;;;12.96;100.00;101116.72;5040247;28;45606;-71
2022/12/21 10:38:47;;;;;;;;;2.00;2.00;;;;;12.94;100.00;101099.88;5029659;28;45487;-70
2022/12/21 10:41:20;;;;;;;;;2.00;2.00;;;;;12.92;100.00;101102.53;5024783;28;64089;-71
2022/12/21 10:43:48;;;;;;;;;2.00;1.67;;;;;12.92;100.00;101085.75;5026084;28;45277;-72
2022/12/21 10:46:18;;;;;;;;;1.00;1.00;;;;;12.94;100.00;101084.88;5043705;28;45571;-72
2022/12/21 10:48:45;;;;;;;;;4.67;2.33;;;;;12.95;100.00;101073.41;5028272;28;45590;-71
2022/12/21 10:51:17;;;;;;;;;4.33;3.00;;;;;12.96;100.00;101067.22;5042509;28;45446;-70
2022/12/21 10:53:57;;;;;;;;;6.00;3.00;;;;;12.96;100.00;101055.75;5025304;28;45726;-72
2022/12/21 10:56:24;;;;;;;;;2.67;2.00;;;;;13.03;100.00;101057.53;5043459;28;45543;-71
2022/12/21 10:58:51;;;;;;;;;2.00;2.00;;;;;13.06;100.00;101041.66;5058041;28;45487;-72
2022/12/21 11:01:22;;;;;;;;;5.33;3.00;;;;;13.13;100.00;101045.22;5036065;28;46538;-71
2022/12/21 11:04:09;;;;;;;;;1.67;1.67;;;;;13.17;100.00;101045.22;5056337;28;46629;-72
2022/12/21 11:06:35;;;;;;;;;2.67;1.00;;;;;13.12;100.00;101025.78;5054791;28;45603;-72
2022/12/21 11:09:00;;;;;;;;;3.00;3.00;;;;;13.20;100.00;101031.09;5057456;28;45379;-71
2022/12/21 11:11:36;;;;;;;;;4.00;1.00;;;;;13.23;100.00;101026.72;5038418;28;53961;-74
2022/12/21 11:14:03;;;;;;;;;4.00;2.67;;;;;13.26;100.00;101025.84;5055418;28;45533;-75
2022/12/21 11:16:30;;;;;;;;;3.00;2.00;;;;;13.27;100.00;101031.16;5057314;28;45442;-74
2022/12/21 11:19:10;;;;;;;;;2.00;2.00;;;;;13.33;100.00;101019.69;5057796;28;45743;-74
2022/12/21 11:21:57;;;;;;;;;6.00;3.00;;;;;13.37;100.00;101008.22;5057582;28;45559;-72
2022/12/21 11:24:31;;;;;;;;;4.33;2.00;;;;;13.46;100.00;101004.69;5052961;28;45390;-74
2022/12/21 11:26:59;;;;;;;;;5.00;3.67;;;;;13.57;100.00;101002.91;5038516;28;45406;-75
2022/12/21 11:29:31;;;;;;;;;5.00;2.00;;;;;13.64;100.00;100999.41;5039012;28;45367;-73
2022/12/21 11:32:04;;;;;;;;;5.00;2.33;;;;;13.75;100.00;101004.72;5029128;28;46515;-73
2022/12/21 11:34:35;;;;;;;;;3.67;3.67;;;;;13.84;100.00;101008.25;5057880;28;45598;-74
2022/12/21 11:37:21;;;;;;;;;5.00;2.33;;;;;13.88;100.00;101002.06;5031400;28;45612;-75
2022/12/21 11:39:47;;;;;;;;;3.33;3.33;;;;;13.85;100.00;100987.94;5057994;28;45431;-71
2022/12/21 11:42:21;;;;;;;;;3.67;3.00;;;;;13.84;100.00;100979.06;5058007;28;46298;-75